Time;durP1;ratioP1;P1;durP2;ratioP2;P2;SDS_P1;SDS_P2;PMS_P1;PMS_P2;Temp;Humidity;BMP_temperature;BMP_pressure;BME280_temperature;BME280_humidity;BME280_pressure;Samples;Min_cycle;Max_cycle;Signal;HPM_P1;HPM_P2
2022/02/05 00:02:08;;;;;;;4.18;2.70;;;19.40;96.80;;;;;;4229027;28;20201;-75
2022/02/05 00:04:14;;;;;;;5.15;2.95;;;19.40;96.80;;;;;;4229094;28;20634;-75
2022/02/05 00:06:21;;;;;;;5.28;2.80;;;19.40;96.70;;;;;;4228831;28;20214;-75
2022/02/05 00:13:21;;;;;;;5.03;2.63;;;19.40;96.70;;;;;;4194426;28;20266;-75
2022/02/05 00:38:56;;;;;;;4.72;2.53;;;19.30;96.50;;;;;;4228756;28;20202;-75
2022/02/05 00:41:10;;;;;;;4.57;2.60;;;19.20;96.30;;;;;;4228374;28;20233;-75
2022/02/05 00:43:14;;;;;;;4.65;2.50;;;19.30;96.40;;;;;;4228379;28;20275;-75
2022/02/05 00:45:18;;;;;;;3.78;2.45;;;19.20;96.40;;;;;;4231398;28;20225;-75
2022/02/05 00:47:22;;;;;;;4.82;2.60;;;19.20;96.30;;;;;;4231655;28;20209;-75
2022/02/05 00:49:30;;;;;;;4.75;2.40;;;19.20;96.40;;;;;;4231801;28;20206;-75
2022/02/05 00:51:40;;;;;;;4.70;2.40;;;19.20;96.40;;;;;;4231230;28;20266;-75
2022/02/05 00:54:08;;;;;;;4.43;2.45;;;19.20;96.40;;;;;;4231720;28;20221;-75
2022/02/05 00:56:17;;;;;;;4.97;2.53;;;19.20;96.30;;;;;;4228656;28;20235;-76
2022/02/05 00:58:22;;;;;;;4.95;2.78;;;19.20;96.30;;;;;;4223299;28;20615;-76
2022/02/05 01:00:26;;;;;;;5.78;2.50;;;19.10;96.20;;;;;;4227785;28;20765;-76
2022/02/05 01:02:28;;;;;;;4.10;2.50;;;19.10;96.20;;;;;;4230788;28;20592;-76
2022/02/05 01:04:30;;;;;;;4.10;2.33;;;19.20;96.20;;;;;;4231075;28;20210;-76
2022/02/05 01:06:33;;;;;;;5.40;2.53;;;19.10;96.10;;;;;;4230568;28;20270;-76
2022/02/05 01:08:38;;;;;;;3.35;1.90;;;19.20;96.10;;;;;;4229723;28;20213;-76
2022/02/05 01:10:42;;;;;;;4.28;2.17;;;19.10;96.10;;;;;;4229656;28;20264;-76
2022/02/05 01:12:50;;;;;;;6.57;2.38;;;19.10;96.10;;;;;;4230437;28;20210;-76
2022/02/05 01:14:58;;;;;;;3.83;2.28;;;19.10;96.10;;;;;;4230514;28;20274;-76
2022/02/05 01:17:08;;;;;;;3.90;2.35;;;19.10;96.10;;;;;;4230703;28;20210;-76
2022/02/05 01:19:22;;;;;;;5.07;2.28;;;19.10;96.00;;;;;;4230569;28;20202;-76
2022/02/05 01:21:35;;;;;;;4.72;2.13;;;19.10;96.10;;;;;;4230562;28;20233;-76
2022/02/05 01:23:44;;;;;;;3.75;2.35;;;19.10;96.00;;;;;;4229966;28;20870;-76
2022/02/05 01:25:54;;;;;;;5.18;2.22;;;19.00;96.00;;;;;;4230239;28;20213;-76
2022/02/05 01:28:00;;;;;;;3.63;2.50;;;19.00;95.90;;;;;;4230509;28;20650;-76
2022/02/05 01:30:15;;;;;;;5.15;2.30;;;19.00;96.00;;;;;;4229466;28;20210;-76
2022/02/05 01:32:23;;;;;;;4.63;2.20;;;19.00;96.00;;;;;;4230348;28;20570;-76
2022/02/05 01:34:32;;;;;;;4.38;2.38;;;19.00;95.90;;;;;;4229919;28;20213;-76
2022/02/05 01:51:00;;;;;;;5.45;2.40;;;18.90;95.80;;;;;;4211115;28;20194;-76
2022/02/05 01:55:36;;;;;;;3.80;2.30;;;18.90;95.80;;;;;;4205887;28;20260;-76
2022/02/05 02:04:53;;;;;;;4.90;2.40;;;18.90;95.70;;;;;;4212959;28;20214;-76
2022/02/05 02:07:10;;;;;;;3.90;2.20;;;18.90;95.50;;;;;;4210785;28;20214;-76
2022/02/05 02:11:41;;;;;;;4.05;2.20;;;18.90;95.50;;;;;;4213125;28;20203;-76
2022/02/05 02:16:15;;;;;;;4.15;1.95;;;18.80;95.50;;;;;;4212975;28;20203;-76
2022/02/05 02:18:27;;;;;;;4.15;2.28;;;18.80;95.50;;;;;;4212775;28;20549;-76
2022/02/05 02:20:48;;;;;;;3.67;2.38;;;18.90;95.50;;;;;;4212603;28;20312;-76
2022/02/05 02:23:06;;;;;;;4.57;2.17;;;18.80;95.50;;;;;;4212084;28;20238;-76
2022/02/05 02:25:18;;;;;;;4.50;2.05;;;18.80;95.30;;;;;;4211834;28;20206;-76
2022/02/05 02:27:30;;;;;;;3.85;2.25;;;18.80;95.30;;;;;;4212244;28;20654;-76
2022/02/05 02:29:44;;;;;;;5.15;2.58;;;18.80;95.30;;;;;;4212298;28;20536;-76
2022/02/05 02:31:50;;;;;;;4.47;2.20;;;18.80;95.40;;;;;;4212489;28;20214;-76
2022/02/05 02:33:55;;;;;;;4.88;2.80;;;18.80;95.20;;;;;;4212088;28;20218;-76
2022/02/05 02:35:58;;;;;;;3.13;2.10;;;18.80;95.20;;;;;;4212454;28;20600;-76
2022/02/05 02:38:08;;;;;;;5.75;2.40;;;18.80;95.30;;;;;;4212645;28;20222;-76
2022/02/05 02:40:21;;;;;;;5.15;2.20;;;18.70;95.30;;;;;;4212019;28;20308;-76
2022/02/05 02:42:24;;;;;;;3.95;2.22;;;18.70;95.30;;;;;;4212223;28;20234;-76
2022/02/05 02:44:27;;;;;;;4.40;2.15;;;18.70;95.60;;;;;;4216977;28;20229;-76
2022/02/05 02:46:29;;;;;;;5.85;2.58;;;18.80;95.30;;;;;;4228896;28;20228;-76
2022/02/05 02:48:31;;;;;;;5.40;2.20;;;18.70;95.10;;;;;;4215896;28;20268;-75
2022/02/05 02:56:25;;;;;;;4.78;2.15;;;18.70;95.10;;;;;;4227710;28;20213;-75
2022/02/05 02:57:55;;;;;;;4.72;2.30;;;18.70;95.10;;;;;;4215360;28;20214;-74
2022/02/05 03:00:00;;;;;;;4.20;2.10;;;18.70;95.10;;;;;;4211529;28;20259;-75
2022/02/05 03:02:11;;;;;;;3.80;2.13;;;18.70;95.20;;;;;;4221649;28;20230;-75
2022/02/05 03:04:13;;;;;;;5.05;2.30;;;18.60;95.10;;;;;;4223680;28;20779;-75
2022/02/05 03:06:16;;;;;;;6.30;2.35;;;18.70;95.20;;;;;;4227266;28;20548;-75
2022/02/05 03:08:18;;;;;;;4.10;2.20;;;18.60;95.10;;;;;;4224906;28;20307;-75
2022/02/05 03:10:22;;;;;;;5.47;2.20;;;18.70;95.20;;;;;;4224361;28;20264;-75
2022/02/05 03:12:24;;;;;;;3.85;1.90;;;18.60;95.10;;;;;;4218489;28;20211;-75
2022/02/05 03:14:27;;;;;;;3.60;2.10;;;18.70;95.10;;;;;;4211042;28;20260;-75
2022/02/05 03:16:35;;;;;;;5.05;2.22;;;18.60;95.00;;;;;;4211154;28;21011;-75
2022/02/05 03:18:48;;;;;;;4.40;2.30;;;18.70;95.00;;;;;;4209155;28;20283;-75
2022/02/05 03:20:51;;;;;;;4.50;2.13;;;18.70;95.10;;;;;;4208074;28;20649;-74
2022/02/05 03:22:53;;;;;;;3.55;2.10;;;18.60;95.00;;;;;;4225211;28;20238;-75
2022/02/05 03:24:55;;;;;;;5.78;2.30;;;18.60;95.00;;;;;;4212250;28;20280;-75
2022/02/05 03:26:59;;;;;;;4.43;2.20;;;18.60;95.00;;;;;;4212631;28;20252;-75
2022/02/05 03:29:01;;;;;;;4.65;2.17;;;18.50;95.00;;;;;;4224131;28;20206;-75
2022/02/05 03:31:04;;;;;;;3.92;2.08;;;18.60;95.00;;;;;;4215822;28;20621;-75
2022/02/05 03:33:07;;;;;;;3.15;2.05;;;18.60;95.10;;;;;;4227691;28;20615;-75
2022/02/05 03:35:09;;;;;;;4.70;2.50;;;18.60;95.10;;;;;;4216331;28;20206;-75
2022/02/05 03:37:12;;;;;;;4.13;1.83;;;18.60;95.00;;;;;;4227594;28;20255;-75
2022/02/05 03:39:15;;;;;;;4.80;2.15;;;18.60;95.00;;;;;;4224048;28;20218;-75
2022/02/05 03:41:17;;;;;;;4.30;2.05;;;18.50;94.90;;;;;;4214917;28;20207;-75
2022/02/05 03:43:21;;;;;;;3.50;2.20;;;18.60;94.90;;;;;;4227486;28;20238;-75
2022/02/05 03:45:23;;;;;;;4.05;2.00;;;18.60;95.00;;;;;;4227037;28;20627;-74
2022/02/05 03:47:30;;;;;;;3.72;1.70;;;18.50;94.90;;;;;;4223358;28;20210;-75
2022/02/05 03:49:33;;;;;;;3.70;2.05;;;18.50;95.20;;;;;;4227874;28;20206;-75
2022/02/05 03:51:35;;;;;;;4.85;2.13;;;18.50;94.90;;;;;;4222547;28;20271;-75
2022/02/05 03:53:37;;;;;;;4.30;2.05;;;18.50;95.00;;;;;;4228395;28;20206;-75
2022/02/05 03:55:44;;;;;;;4.90;2.17;;;18.50;94.90;;;;;;4214902;28;20263;-75
2022/02/05 03:57:47;;;;;;;3.58;1.75;;;18.50;95.00;;;;;;4219056;28;20214;-75
2022/02/05 03:59:51;;;;;;;5.03;2.38;;;18.50;95.00;;;;;;4219107;28;20226;-75
2022/02/05 04:01:54;;;;;;;5.10;2.28;;;18.50;94.90;;;;;;4212103;28;20236;-75
2022/02/05 04:03:57;;;;;;;4.57;2.13;;;18.50;94.90;;;;;;4218687;28;20596;-75
2022/02/05 04:05:59;;;;;;;4.63;2.08;;;18.50;94.80;;;;;;4224202;28;20214;-75
2022/02/05 04:08:04;;;;;;;4.03;2.25;;;18.50;95.20;;;;;;4223032;28;20214;-74
2022/02/05 04:10:09;;;;;;;2.63;1.60;;;18.50;94.80;;;;;;4227622;28;20263;-75
2022/02/05 04:16:52;;;;;;;7.00;2.30;;;18.40;94.80;;;;;;4224493;28;20195;-75
2022/02/05 04:18:56;;;;;;;5.28;1.90;;;18.40;94.80;;;;;;4214748;28;20218;-75
2022/02/05 04:20:59;;;;;;;3.85;1.85;;;18.40;94.70;;;;;;4228188;28;20214;-75
2022/02/05 04:23:01;;;;;;;4.03;2.20;;;18.50;94.70;;;;;;4224265;28;20241;-76
2022/02/05 04:25:04;;;;;;;4.72;2.15;;;18.40;94.70;;;;;;4230575;28;20222;-76
2022/02/05 04:27:07;;;;;;;5.55;2.28;;;18.40;94.70;;;;;;4229579;28;20675;-76
2022/02/05 04:29:10;;;;;;;2.53;1.80;;;18.40;94.70;;;;;;4230049;28;20271;-76
2022/02/05 04:31:13;;;;;;;4.47;2.08;;;18.40;94.70;;;;;;4229846;28;20206;-76
2022/02/05 04:33:16;;;;;;;6.32;2.13;;;18.40;94.70;;;;;;4222512;28;20213;-76
2022/02/05 04:35:19;;;;;;;3.88;1.85;;;18.40;94.70;;;;;;4218397;28;20251;-76
2022/02/05 04:37:24;;;;;;;4.90;2.08;;;18.40;94.70;;;;;;4228108;28;20262;-76
2022/02/05 04:39:27;;;;;;;4.22;1.75;;;18.40;94.60;;;;;;4229006;28;20270;-76
2022/02/05 04:41:36;;;;;;;4.05;1.88;;;18.40;94.70;;;;;;4222130;28;20214;-76
2022/02/05 04:48:47;;;;;;;5.35;1.98;;;18.40;94.60;;;;;;4177596;28;20257;-76
2022/02/05 04:51:28;;;;;;;5.30;2.28;;;18.40;94.50;;;;;;4213558;28;20263;-76
2022/02/05 04:53:43;;;;;;;4.53;2.03;;;18.40;94.50;;;;;;4209533;28;20211;-76
2022/02/05 04:56:11;;;;;;;3.30;2.10;;;18.30;94.50;;;;;;4221393;28;20713;-76
2022/02/05 04:58:32;;;;;;;5.95;2.17;;;18.30;94.50;;;;;;4213718;28;20202;-76
2022/02/05 05:03:08;;;;;;;3.97;1.88;;;18.30;94.50;;;;;;4226264;28;20652;-76
2022/02/05 05:05:24;;;;;;;5.57;2.33;;;18.30;94.40;;;;;;4230885;28;20210;-76
2022/02/05 05:07:56;;;;;;;3.95;1.70;;;18.30;94.50;;;;;;4221354;28;20275;-76
2022/02/05 05:10:04;;;;;;;6.60;2.00;;;18.30;94.50;;;;;;4230512;28;20259;-75
2022/02/05 05:12:22;;;;;;;3.08;1.63;;;18.30;94.60;;;;;;4216688;28;20225;-76
2022/02/05 05:19:26;;;;;;;5.43;2.10;;;18.30;94.50;;;;;;4212397;28;20568;-76
2022/02/05 05:21:30;;;;;;;4.10;2.13;;;18.30;94.60;;;;;;4219485;28;20206;-76
2022/02/05 05:23:33;;;;;;;6.28;2.20;;;18.20;94.50;;;;;;4222954;28;20233;-76
2022/02/05 05:25:35;;;;;;;3.28;1.80;;;18.20;94.60;;;;;;4222015;28;20214;-76
2022/02/05 05:27:40;;;;;;;3.80;1.88;;;18.20;94.60;;;;;;4221721;28;20221;-76
2022/02/05 05:29:45;;;;;;;3.85;2.08;;;18.20;94.60;;;;;;4229231;28;20217;-76
2022/02/05 05:31:47;;;;;;;3.30;2.17;;;18.20;94.50;;;;;;4217921;28;21067;-75
2022/02/05 05:33:50;;;;;;;3.03;1.80;;;18.20;94.50;;;;;;4221669;28;20259;-76
2022/02/05 05:35:54;;;;;;;5.25;2.00;;;18.20;94.50;;;;;;4221700;28;20218;-76
2022/02/05 05:37:57;;;;;;;3.00;1.60;;;18.20;94.60;;;;;;4223028;28;20214;-76
2022/02/05 05:40:02;;;;;;;4.15;2.15;;;18.20;94.50;;;;;;4219686;28;20267;-75
2022/02/05 05:42:10;;;;;;;4.80;1.92;;;18.20;94.50;;;;;;4224096;28;20974;-76
2022/02/05 05:46:41;;;;;;;4.22;2.00;;;18.20;94.40;;;;;;4198871;28;20619;-76
2022/02/05 05:48:57;;;;;;;5.10;1.90;;;18.20;94.40;;;;;;4229010;28;20282;-76
2022/02/05 05:50:59;;;;;;;4.38;1.83;;;18.20;94.40;;;;;;4229280;28;20250;-75
2022/02/05 05:53:04;;;;;;;3.58;1.90;;;18.20;94.40;;;;;;4218606;28;20219;-76
2022/02/05 05:55:07;;;;;;;5.30;1.98;;;18.20;94.90;;;;;;4227109;28;20218;-76
2022/02/05 05:57:10;;;;;;;3.25;1.80;;;18.10;94.50;;;;;;4230123;28;20202;-76
2022/02/05 05:59:14;;;;;;;4.93;1.83;;;18.10;94.50;;;;;;4229926;28;20259;-76
2022/02/05 06:01:16;;;;;;;4.35;1.70;;;18.10;94.40;;;;;;4229677;28;20209;-76
2022/02/05 06:03:19;;;;;;;3.22;1.40;;;18.10;94.40;;;;;;4229595;28;20278;-76
2022/02/05 06:05:21;;;;;;;5.60;2.10;;;18.10;94.40;;;;;;4228554;28;20214;-76
2022/02/05 06:07:23;;;;;;;4.13;2.08;;;18.10;94.80;;;;;;4229821;28;20682;-76
2022/02/05 06:09:27;;;;;;;3.88;2.30;;;18.10;94.40;;;;;;4228393;28;20654;-76
2022/02/05 06:11:29;;;;;;;4.10;1.80;;;18.10;94.40;;;;;;4230027;28;21038;-76
2022/02/05 06:13:34;;;;;;;6.15;2.00;;;18.10;94.30;;;;;;4229885;28;20206;-75
2022/02/05 06:15:37;;;;;;;4.03;1.75;;;18.10;94.40;;;;;;4229927;28;20210;-75
2022/02/05 06:17:40;;;;;;;6.25;2.50;;;18.10;94.40;;;;;;4230156;28;20206;-75
2022/02/05 06:19:42;;;;;;;3.35;2.05;;;18.20;94.40;;;;;;4229706;28;20214;-74
2022/02/05 06:21:44;;;;;;;4.50;2.05;;;18.10;94.30;;;;;;4228890;28;20225;-75
2022/02/05 06:23:47;;;;;;;4.75;2.10;;;18.10;94.40;;;;;;4229911;28;20689;-75
2022/02/05 06:25:50;;;;;;;5.35;2.15;;;18.10;94.40;;;;;;4229861;28;20217;-74
2022/02/05 06:27:53;;;;;;;5.28;2.28;;;18.10;94.40;;;;;;4229827;28;20213;-75
2022/02/05 06:29:55;;;;;;;4.47;2.05;;;18.10;94.30;;;;;;4230317;28;20223;-75
2022/02/05 06:31:58;;;;;;;3.88;2.00;;;18.10;94.30;;;;;;4230208;28;20222;-75
2022/02/05 06:34:00;;;;;;;3.70;1.88;;;18.10;94.20;;;;;;4229637;28;20209;-75
2022/02/05 06:36:02;;;;;;;5.25;2.17;;;18.00;94.30;;;;;;4229553;28;20218;-74
2022/02/05 06:38:05;;;;;;;3.97;2.08;;;18.00;94.30;;;;;;4230012;28;20209;-75
2022/02/05 06:40:09;;;;;;;4.78;2.15;;;18.00;94.30;;;;;;4228958;28;20213;-75
2022/02/05 06:42:13;;;;;;;6.57;2.33;;;18.00;94.30;;;;;;4229412;28;20214;-75
2022/02/05 06:44:15;;;;;;;5.57;2.20;;;18.00;94.30;;;;;;4228938;28;20238;-74
2022/02/05 06:46:18;;;;;;;4.60;1.83;;;18.00;94.30;;;;;;4229674;28;20217;-74
2022/02/05 06:48:20;;;;;;;6.00;2.20;;;18.00;94.30;;;;;;4229567;28;20214;-75
2022/02/05 06:50:23;;;;;;;4.22;1.83;;;18.00;94.30;;;;;;4229932;28;20266;-74
2022/02/05 06:52:25;;;;;;;4.55;1.98;;;18.00;94.30;;;;;;4226323;28;20666;-74
2022/02/05 06:54:27;;;;;;;6.80;2.22;;;18.00;94.30;;;;;;4223888;28;20254;-75
2022/02/05 06:56:30;;;;;;;5.15;2.13;;;18.00;94.30;;;;;;4228920;28;20251;-74
2022/02/05 06:58:34;;;;;;;4.63;2.00;;;18.00;94.70;;;;;;4227790;28;20243;-75
2022/02/05 07:00:36;;;;;;;5.50;2.28;;;18.00;94.30;;;;;;4229239;28;20218;-75
2022/02/05 07:02:43;;;;;;;7.40;2.10;;;18.00;94.40;;;;;;4228841;28;20221;-74
2022/02/05 07:04:46;;;;;;;4.70;2.22;;;18.00;94.40;;;;;;4228874;28;20639;-75
2022/02/05 07:06:49;;;;;;;3.65;2.15;;;18.00;94.70;;;;;;4230465;28;20277;-74
2022/02/05 07:08:52;;;;;;;3.67;2.20;;;18.00;94.30;;;;;;4231293;28;20607;-75
2022/02/05 07:10:54;;;;;;;6.38;2.45;;;18.00;94.30;;;;;;4231003;28;20210;-75
2022/02/05 07:13:10;;;;;;;4.30;1.83;;;18.00;94.30;;;;;;4231161;28;20239;-75
2022/02/05 07:15:20;;;;;;;5.25;1.90;;;17.90;94.30;;;;;;4221419;28;20267;-75
2022/02/05 07:17:30;;;;;;;4.72;1.90;;;17.90;94.30;;;;;;4230425;28;20246;-75
2022/02/05 07:19:45;;;;;;;3.60;1.92;;;17.90;94.30;;;;;;4230772;28;20267;-75
2022/02/05 07:21:51;;;;;;;5.00;2.20;;;17.90;94.30;;;;;;4230955;28;20270;-75
2022/02/05 07:24:15;;;;;;;5.82;2.35;;;17.90;94.30;;;;;;4224422;28;20274;-75
2022/02/05 07:31:00;;;;;;;4.97;1.80;;;17.90;94.30;;;;;;4231137;28;20185;-75
2022/02/05 07:33:03;;;;;;;7.97;1.90;;;17.90;94.30;;;;;;4229555;28;20948;-74
2022/02/05 07:35:06;;;;;;;4.13;1.77;;;17.90;94.20;;;;;;4230986;28;20209;-75
2022/02/05 07:37:09;;;;;;;6.78;2.28;;;17.90;94.30;;;;;;4230891;28;20205;-75
2022/02/05 07:39:11;;;;;;;4.90;2.03;;;17.90;94.30;;;;;;4230521;28;20255;-74
2022/02/05 07:41:14;;;;;;;6.20;2.05;;;17.80;94.40;;;;;;4222130;28;20213;-75
2022/02/05 07:43:16;;;;;;;3.83;1.80;;;17.90;94.40;;;;;;4230567;28;20267;-75
2022/02/05 07:45:20;;;;;;;7.32;2.55;;;17.80;94.30;;;;;;4230247;28;20233;-74
2022/02/05 07:47:25;;;;;;;4.10;1.95;;;17.90;94.40;;;;;;4230375;28;20624;-75
2022/02/05 07:49:30;;;;;;;4.88;2.15;;;17.80;94.40;;;;;;4230718;28;20258;-74
2022/02/05 07:51:33;;;;;;;4.82;1.90;;;17.80;94.40;;;;;;4229325;28;20550;-75
2022/02/05 07:53:35;;;;;;;6.05;2.63;;;17.80;94.40;;;;;;4229807;28;20267;-75
2022/02/05 07:55:38;;;;;;;5.38;2.10;;;17.80;94.50;;;;;;4229558;28;20210;-76
2022/02/05 07:57:40;;;;;;;5.55;2.20;;;17.80;94.40;;;;;;4229582;28;20693;-76
2022/02/05 07:59:42;;;;;;;6.15;2.38;;;17.90;94.40;;;;;;4223886;28;20627;-76
2022/02/05 08:01:45;;;;;;;5.60;2.13;;;17.90;94.40;;;;;;4221302;28;20339;-76
2022/02/05 08:03:49;;;;;;;5.22;1.92;;;17.90;94.40;;;;;;4221231;28;20635;-76
2022/02/05 08:05:51;;;;;;;5.35;1.95;;;17.80;94.50;;;;;;4229997;28;20233;-76
2022/02/05 08:07:53;;;;;;;5.30;2.35;;;17.60;94.70;;;;;;4226800;28;20259;-76
2022/02/05 08:09:59;;;;;;;4.47;2.22;;;17.60;94.60;;;;;;4229755;28;20210;-76
2022/02/05 08:12:05;;;;;;;4.82;1.95;;;17.70;94.60;;;;;;4229776;28;20217;-76
2022/02/05 08:14:09;;;;;;;5.22;1.83;;;17.80;94.70;;;;;;4229804;28;20635;-75
2022/02/05 08:16:26;;;;;;;4.30;1.80;;;17.80;94.60;;;;;;4229918;28;20225;-76
2022/02/05 08:18:28;;;;;;;4.90;2.00;;;17.90;94.60;;;;;;4229794;28;20221;-76
2022/02/05 08:20:32;;;;;;;5.07;2.28;;;18.00;94.70;;;;;;4229658;28;20270;-76
2022/02/05 08:22:34;;;;;;;4.00;1.75;;;18.00;94.70;;;;;;4229521;28;20210;-76
2022/02/05 08:24:37;;;;;;;5.60;2.13;;;18.00;94.70;;;;;;4227995;28;20237;-76
2022/02/05 08:26:39;;;;;;;5.55;2.05;;;18.00;94.80;;;;;;4229576;28;20244;-76
2022/02/05 08:28:43;;;;;;;5.82;2.38;;;18.00;94.80;;;;;;4229984;28;20856;-76
2022/02/05 08:30:46;;;;;;;5.03;2.30;;;18.10;95.00;;;;;;4229717;28;20221;-76
2022/02/05 08:32:48;;;;;;;6.70;2.40;;;18.10;95.00;;;;;;4229633;28;20318;-76
2022/02/05 08:34:51;;;;;;;3.38;1.70;;;18.10;95.00;;;;;;4229926;28;20944;-76
2022/02/05 08:36:57;;;;;;;5.40;2.40;;;18.10;95.00;;;;;;4229755;28;20668;-76
2022/02/05 08:39:00;;;;;;;5.18;2.00;;;18.20;95.10;;;;;;4229422;28;20275;-75
2022/02/05 08:41:02;;;;;;;5.50;2.08;;;18.20;95.10;;;;;;4229530;28;20282;-76
2022/02/05 08:43:05;;;;;;;6.57;2.33;;;18.20;95.20;;;;;;4228716;28;20206;-75
2022/02/05 08:45:08;;;;;;;5.28;2.05;;;18.20;95.20;;;;;;4229613;28;20266;-76
2022/02/05 08:47:10;;;;;;;4.93;2.17;;;18.20;95.30;;;;;;4229718;28;20677;-76
2022/02/05 08:49:13;;;;;;;6.22;2.10;;;18.20;95.20;;;;;;4229695;28;20278;-76
2022/02/05 08:51:15;;;;;;;5.18;2.67;;;18.20;95.30;;;;;;4229208;28;20233;-76
2022/02/05 08:53:21;;;;;;;6.55;2.10;;;18.20;95.50;;;;;;4217648;28;20261;-76
2022/02/05 08:55:28;;;;;;;4.63;1.92;;;18.20;95.40;;;;;;4224794;28;20211;-76
2022/02/05 08:57:34;;;;;;;5.90;1.85;;;18.20;95.40;;;;;;4224916;28;20275;-75
2022/02/05 08:59:46;;;;;;;6.20;2.20;;;18.20;95.40;;;;;;4226557;28;20210;-75
2022/02/05 09:01:54;;;;;;;4.88;2.10;;;18.20;95.40;;;;;;4229202;28;20267;-75
2022/02/05 09:04:03;;;;;;;4.38;1.90;;;18.30;95.50;;;;;;4229467;28;20902;-75
2022/02/05 09:06:06;;;;;;;3.83;1.75;;;18.30;95.50;;;;;;4232187;28;20628;-76
2022/02/05 09:08:19;;;;;;;4.40;2.10;;;18.30;95.60;;;;;;4232357;28;20259;-75
2022/02/05 09:10:30;;;;;;;4.22;2.08;;;18.30;95.60;;;;;;4232364;28;20271;-75
2022/02/05 09:12:55;;;;;;;3.78;1.80;;;18.30;95.60;;;;;;4232265;28;20357;-75
2022/02/05 09:14:57;;;;;;;7.13;2.40;;;18.30;95.70;;;;;;4232337;28;20674;-76
2022/02/05 09:16:59;;;;;;;4.10;2.05;;;18.30;95.70;;;;;;4232481;28;20218;-76
2022/02/05 09:19:02;;;;;;;5.38;2.17;;;18.30;95.70;;;;;;4222790;28;20217;-76
2022/02/05 09:21:05;;;;;;;6.07;2.47;;;18.30;95.70;;;;;;4232282;28;20239;-76
2022/02/05 09:23:07;;;;;;;4.68;1.85;;;18.40;95.60;;;;;;4232188;28;20271;-76
2022/02/05 09:25:10;;;;;;;5.70;2.08;;;18.40;95.70;;;;;;4232441;28;20306;-76
2022/02/05 09:27:14;;;;;;;4.95;2.22;;;18.40;95.80;;;;;;4232102;28;20222;-76
2022/02/05 09:29:20;;;;;;;4.55;2.13;;;18.40;95.70;;;;;;4231802;28;20213;-76
2022/02/05 09:31:31;;;;;;;6.13;2.15;;;18.40;95.80;;;;;;4232254;28;20263;-75
2022/02/05 09:33:33;;;;;;;6.57;1.98;;;18.40;96.00;;;;;;4232030;28;20218;-76
2022/02/05 09:35:36;;;;;;;5.40;2.40;;;18.40;95.80;;;;;;4225340;28;20206;-76
2022/02/05 09:37:39;;;;;;;6.82;2.38;;;18.40;96.00;;;;;;4232577;28;20218;-76
2022/02/05 09:39:43;;;;;;;7.10;2.25;;;18.40;95.90;;;;;;4230221;28;20275;-76
2022/02/05 09:41:46;;;;;;;5.78;1.92;;;18.40;95.80;;;;;;4232027;28;20213;-76
2022/02/05 09:43:51;;;;;;;5.00;2.28;;;18.40;95.90;;;;;;4231731;28;20217;-76
2022/02/05 09:45:53;;;;;;;4.05;2.08;;;18.50;96.00;;;;;;4231660;28;20238;-76
2022/02/05 09:47:57;;;;;;;7.05;2.35;;;18.40;96.10;;;;;;4231939;28;20592;-76
2022/02/05 09:50:01;;;;;;;5.88;2.28;;;18.50;96.00;;;;;;4231552;28;20213;-76
2022/02/05 09:52:12;;;;;;;5.05;2.30;;;18.50;95.90;;;;;;4225158;28;20222;-75
2022/02/05 09:54:15;;;;;;;6.13;2.30;;;18.50;95.90;;;;;;4218949;28;20213;-75
2022/02/05 09:56:18;;;;;;;6.13;2.28;;;18.50;96.00;;;;;;4229942;28;20259;-75
2022/02/05 09:58:20;;;;;;;4.20;1.83;;;18.50;96.00;;;;;;4231451;28;20629;-75
2022/02/05 10:00:26;;;;;;;4.00;2.10;;;18.50;96.50;;;;;;4231954;28;20221;-75
2022/02/05 10:02:30;;;;;;;4.68;2.03;;;18.50;95.90;;;;;;4232085;28;20599;-76
2022/02/05 10:04:52;;;;;;;4.00;1.83;;;18.50;95.90;;;;;;4231799;28;20218;-76
2022/02/05 10:06:55;;;;;;;3.42;1.60;;;18.50;96.10;;;;;;4231551;28;20701;-75
2022/02/05 10:09:00;;;;;;;3.80;1.88;;;18.50;96.10;;;;;;4231325;28;20214;-76
2022/02/05 10:11:03;;;;;;;4.63;2.10;;;18.60;96.20;;;;;;4231434;28;20251;-76
2022/02/05 10:13:10;;;;;;;3.53;1.50;;;18.60;96.20;;;;;;4230253;28;20554;-76
2022/02/05 10:15:13;;;;;;;4.28;1.90;;;18.60;96.40;;;;;;4231249;28;20274;-75
2022/02/05 10:17:16;;;;;;;4.38;2.08;;;18.60;96.20;;;;;;4231543;28;20665;-75
2022/02/05 10:19:22;;;;;;;4.10;1.80;;;18.60;96.20;;;;;;4231634;28;20243;-75
2022/02/05 10:21:26;;;;;;;3.90;1.80;;;18.60;96.20;;;;;;4231361;28;20225;-76
2022/02/05 10:23:30;;;;;;;5.00;2.00;;;18.60;96.10;;;;;;4231759;28;21038;-76
2022/02/05 10:25:32;;;;;;;4.50;1.77;;;18.60;96.20;;;;;;4231632;28;20221;-76
2022/02/05 10:27:40;;;;;;;3.70;1.73;;;18.60;96.20;;;;;;4231579;28;20275;-76
2022/02/05 10:29:44;;;;;;;5.57;2.08;;;18.60;96.10;;;;;;4229981;28;20204;-76
2022/02/05 10:32:01;;;;;;;1.80;1.42;;;18.60;96.20;;;;;;4230974;28;20561;-75
2022/02/05 10:34:12;;;;;;;5.75;2.00;;;18.60;96.20;;;;;;4230976;28;20662;-76
2022/02/05 10:36:25;;;;;;;4.18;1.63;;;18.70;96.30;;;;;;4231101;28;20259;-75
2022/02/05 10:42:49;;;;;;;5.50;1.98;;;18.60;96.20;;;;;;4223933;28;20259;-75
2022/02/05 10:43:34;;;;;;;4.22;2.03;;;18.60;96.20;;;;;;4229145;28;20274;-75
2022/02/05 10:45:47;;;;;;;5.20;2.00;;;18.70;96.10;;;;;;4225445;28;20233;-75
2022/02/05 10:47:52;;;;;;;4.90;1.90;;;18.70;96.30;;;;;;4226319;28;20221;-76
2022/02/05 10:49:57;;;;;;;4.18;1.90;;;18.70;96.10;;;;;;4230774;28;20217;-76
2022/02/05 10:52:00;;;;;;;6.38;1.98;;;18.70;96.00;;;;;;4217007;28;20201;-76
2022/02/05 10:54:11;;;;;;;4.30;1.95;;;18.70;96.30;;;;;;4208631;28;20602;-75
2022/02/05 10:56:26;;;;;;;5.45;1.98;;;18.70;96.20;;;;;;4223635;28;20209;-76
2022/02/05 10:58:46;;;;;;;3.80;1.80;;;18.70;96.30;;;;;;4230960;28;20267;-76
2022/02/05 11:05:39;;;;;;;4.47;1.90;;;18.70;96.10;;;;;;4231043;28;20193;-75
2022/02/05 11:07:42;;;;;;;4.85;2.05;;;18.70;96.10;;;;;;4231303;28;20262;-75
2022/02/05 11:09:46;;;;;;;3.90;1.70;;;18.70;96.30;;;;;;4231340;28;20267;-75
2022/02/05 11:19:05;;;;;;;3.95;1.85;;;18.70;96.10;;;;;;4231612;28;20201;-76
2022/02/05 11:21:09;;;;;;;3.67;1.85;;;18.70;96.40;;;;;;4230255;28;20210;-75
2022/02/05 11:23:13;;;;;;;5.13;2.30;;;18.70;96.30;;;;;;4231028;28;20209;-75
2022/02/05 11:25:16;;;;;;;4.60;2.05;;;18.80;96.30;;;;;;4231185;28;20630;-75
2022/02/05 11:27:19;;;;;;;4.05;1.90;;;18.70;96.20;;;;;;4230262;28;20234;-75
2022/02/05 11:29:29;;;;;;;2.95;1.58;;;18.80;96.30;;;;;;4231611;28;20688;-75
2022/02/05 11:31:35;;;;;;;5.35;1.85;;;18.80;96.10;;;;;;4231017;28;20661;-76
2022/02/05 11:33:38;;;;;;;5.40;2.03;;;18.80;96.30;;;;;;4230422;28;20606;-75
2022/02/05 11:35:48;;;;;;;3.00;1.80;;;18.80;96.40;;;;;;4230376;28;20218;-75
2022/02/05 11:37:55;;;;;;;3.42;1.77;;;18.80;96.40;;;;;;4230165;28;20217;-76
2022/02/05 11:39:57;;;;;;;4.88;2.30;;;18.80;96.60;;;;;;4229162;28;20263;-75
2022/02/05 11:42:25;;;;;;;4.18;1.90;;;18.80;96.50;;;;;;4229960;28;20657;-76
2022/02/05 11:44:39;;;;;;;4.03;2.15;;;18.80;96.40;;;;;;4221892;28;20740;-76
2022/02/05 11:47:01;;;;;;;3.33;1.80;;;18.80;96.50;;;;;;4229691;28;20232;-76
2022/02/05 11:49:05;;;;;;;3.75;2.03;;;18.90;96.60;;;;;;4222675;28;20213;-75
2022/02/05 11:51:11;;;;;;;4.80;2.03;;;18.90;96.90;;;;;;4230075;28;20209;-75
2022/02/05 11:53:15;;;;;;;4.90;2.08;;;18.90;96.40;;;;;;4229905;28;20264;-75
2022/02/05 11:55:31;;;;;;;4.00;1.88;;;18.90;96.40;;;;;;4229688;28;20217;-76
2022/02/05 11:57:57;;;;;;;4.05;1.83;;;18.90;96.40;;;;;;4229456;28;20206;-75
2022/02/05 12:00:08;;;;;;;4.15;1.98;;;18.90;96.50;;;;;;4229730;28;20221;-76
2022/02/05 12:02:13;;;;;;;4.95;1.95;;;18.90;96.40;;;;;;4212104;28;20557;-75
2022/02/05 12:04:19;;;;;;;3.95;1.90;;;18.90;96.50;;;;;;4230338;28;20213;-75
2022/02/05 12:06:21;;;;;;;3.88;1.73;;;18.90;96.50;;;;;;4230453;28;20271;-75
2022/02/05 12:08:30;;;;;;;3.53;1.70;;;18.90;96.60;;;;;;4230392;28;20218;-75
2022/02/05 12:10:34;;;;;;;3.90;2.08;;;19.00;96.60;;;;;;4230919;28;20278;-75
2022/02/05 12:12:46;;;;;;;4.13;1.90;;;19.00;96.60;;;;;;4230734;28;20735;-76
2022/02/05 12:15:22;;;;;;;4.10;1.92;;;19.00;96.60;;;;;;4228694;28;20221;-76
2022/02/05 12:17:28;;;;;;;5.88;1.95;;;19.00;96.70;;;;;;4229908;28;20259;-76
2022/02/05 12:19:30;;;;;;;4.93;2.15;;;19.00;96.50;;;;;;4230272;28;20213;-75
2022/02/05 12:21:52;;;;;;;3.40;2.00;;;19.00;96.80;;;;;;4230373;28;20715;-76
2022/02/05 12:26:25;;;;;;;4.05;1.88;;;19.10;96.60;;;;;;4205017;28;20909;-75
2022/02/05 12:28:34;;;;;;;3.75;1.77;;;19.10;96.50;;;;;;4213851;28;20561;-75
2022/02/05 12:30:40;;;;;;;5.28;2.08;;;19.00;96.50;;;;;;4224001;28;20247;-75
2022/02/05 12:32:42;;;;;;;3.42;2.10;;;19.10;96.50;;;;;;4224552;28;20201;-75
2022/02/05 12:34:46;;;;;;;4.78;2.17;;;19.10;96.50;;;;;;4230059;28;20769;-75
2022/02/05 12:36:52;;;;;;;4.97;2.10;;;19.10;96.60;;;;;;4230646;28;20210;-75
2022/02/05 12:38:57;;;;;;;4.45;2.13;;;19.10;96.50;;;;;;4231818;28;20263;-75
2022/02/05 12:41:00;;;;;;;3.20;1.70;;;19.10;96.60;;;;;;4233707;28;20214;-75
2022/02/05 12:43:03;;;;;;;4.80;2.10;;;19.10;96.50;;;;;;4233899;28;20221;-75